createdAt,value
2018-06-04T00:00:32.542Z,18.69
2018-06-04T00:02:37.345Z,18.68
2018-06-04T00:04:42.024Z,18.63
2018-06-04T00:06:46.694Z,18.48
2018-06-04T00:08:51.305Z,18.53
2018-06-04T00:10:55.991Z,18.32
2018-06-04T00:13:00.631Z,18.39
2018-06-04T00:15:05.369Z,18.46
2018-06-04T00:17:10.222Z,18.44
2018-06-04T00:19:14.909Z,18.37
2018-06-04T00:21:19.205Z,18.37
2018-06-04T00:23:23.977Z,18.35
2018-06-04T00:25:28.664Z,18.24
2018-06-04T00:27:33.298Z,18.29
2018-06-04T00:29:37.964Z,18.32
2018-06-04T00:31:42.701Z,18.33
2018-06-04T00:33:47.325Z,18.31
2018-06-04T00:35:52.046Z,18.17
2018-06-04T00:37:56.811Z,18.25
2018-06-04T00:40:01.165Z,18.25
2018-06-04T00:42:05.899Z,18.22
2018-06-04T00:44:10.574Z,18.19
2018-06-04T00:46:15.336Z,18.14
2018-06-04T00:48:20.091Z,18.19
2018-06-04T00:50:24.775Z,18.14
2018-06-04T00:52:29.391Z,18.15
2018-06-04T00:54:34.017Z,18.16
2018-06-04T00:56:39.042Z,18.11
2018-06-04T00:58:43.838Z,18.02
2018-06-04T01:00:48.841Z,18.13
2018-06-04T01:02:53.574Z,18.17
2018-06-04T01:04:58.239Z,18.14
2018-06-04T01:07:03.039Z,18.05
2018-06-04T01:09:09.017Z,17.97
2018-06-04T01:11:13.843Z,17.92
2018-06-04T01:13:18.573Z,18.03
2018-06-04T01:15:23.327Z,17.99
2018-06-04T01:17:28.056Z,18.06
2018-06-04T01:19:32.851Z,18.04
2018-06-04T01:21:37.567Z,18.04
2018-06-04T01:23:42.251Z,18.03
2018-06-04T01:25:46.922Z,18.01
2018-06-04T01:27:51.554Z,18.00
2018-06-04T01:29:56.165Z,18.01
2018-06-04T01:32:00.895Z,17.98
2018-06-04T01:34:05.610Z,17.97
2018-06-04T01:36:10.414Z,17.94
2018-06-04T01:38:15.066Z,17.91
2018-06-04T01:40:19.743Z,17.87
2018-06-04T01:42:24.432Z,17.63
2018-06-04T01:44:29.245Z,17.92
2018-06-04T01:46:33.942Z,17.96
2018-06-04T01:48:38.657Z,17.90
2018-06-04T01:50:43.361Z,17.80
2018-06-04T01:52:48.060Z,17.85
2018-06-04T01:54:52.707Z,17.86
2018-06-04T01:56:57.491Z,17.85
2018-06-04T01:59:02.215Z,17.85
2018-06-04T02:01:06.888Z,17.76
2018-06-04T02:03:11.650Z,17.80
2018-06-04T02:05:16.416Z,17.79
2018-06-04T02:07:21.105Z,17.58
2018-06-04T02:09:25.733Z,17.80
2018-06-04T02:11:30.371Z,17.80
2018-06-04T02:13:34.975Z,17.83
2018-06-04T02:15:39.569Z,17.82
2018-06-04T02:17:44.186Z,17.80
2018-06-04T02:19:48.911Z,17.82
2018-06-04T02:21:53.565Z,17.80
2018-06-04T02:23:58.230Z,17.81
2018-06-04T02:26:02.886Z,17.60
2018-06-04T02:28:07.570Z,17.79
2018-06-04T02:30:12.333Z,17.82
2018-06-04T02:32:17.053Z,17.80
2018-06-04T02:34:21.709Z,17.77
2018-06-04T02:36:26.411Z,17.77
2018-06-04T02:38:31.102Z,17.78
2018-06-04T02:40:35.732Z,17.74
2018-06-04T02:42:40.420Z,17.75
2018-06-04T02:44:45.112Z,17.77
2018-06-04T02:46:49.720Z,17.77
2018-06-04T02:48:54.368Z,17.82
2018-06-04T02:51:00.014Z,17.83
2018-06-04T02:53:04.670Z,17.80
2018-06-04T02:55:09.336Z,17.68
2018-06-04T02:57:14.012Z,17.81
2018-06-04T02:59:18.736Z,17.81
2018-06-04T03:01:23.582Z,17.81
2018-06-04T03:03:28.280Z,17.83
2018-06-04T03:05:32.979Z,17.80
2018-06-04T03:07:37.607Z,17.68
2018-06-04T03:09:42.283Z,17.78
2018-06-04T03:11:46.961Z,17.80
2018-06-04T03:13:51.633Z,17.78
2018-06-04T03:15:56.355Z,17.79
2018-06-04T03:18:01.024Z,17.78
2018-06-04T03:20:05.792Z,17.84
2018-06-04T03:22:10.640Z,17.86
2018-06-04T03:24:15.271Z,17.78
2018-06-04T03:26:20.028Z,17.87
2018-06-04T03:28:24.681Z,17.87
2018-06-04T03:30:29.513Z,17.78
2018-06-04T03:32:34.206Z,17.83
2018-06-04T03:34:38.977Z,17.86
2018-06-04T03:36:43.647Z,17.87
2018-06-04T03:38:48.313Z,17.94
2018-06-04T03:40:52.955Z,17.92
2018-06-04T03:42:57.616Z,17.91
2018-06-04T03:45:02.301Z,18.00
2018-06-04T03:47:07.363Z,18.00
2018-06-04T03:49:11.694Z,17.99
2018-06-04T03:51:16.535Z,17.95
2018-06-04T03:53:21.476Z,17.61
2018-06-04T03:55:26.230Z,17.94
2018-06-04T03:57:30.896Z,17.95
2018-06-04T03:59:35.603Z,17.97
2018-06-04T04:01:40.241Z,17.96
2018-06-04T04:03:44.900Z,17.96
2018-06-04T04:05:49.520Z,17.95
2018-06-04T04:07:54.301Z,17.96
2018-06-04T04:09:59.043Z,17.96
2018-06-04T04:12:03.971Z,17.97
2018-06-04T04:14:08.785Z,17.97
2018-06-04T04:16:13.428Z,17.90
2018-06-04T04:18:18.208Z,17.91
2018-06-04T04:20:23.206Z,18.00
2018-06-04T04:22:27.888Z,18.01
2018-06-04T04:24:32.506Z,18.02
2018-06-04T04:26:37.136Z,18.06
2018-06-04T04:28:41.918Z,18.10
2018-06-04T04:30:46.576Z,18.14
2018-06-04T04:32:51.311Z,18.17
2018-06-04T04:34:56.172Z,18.17
2018-06-04T04:37:01.128Z,18.21
2018-06-04T04:39:09.519Z,18.27
2018-06-04T04:41:14.322Z,18.40
2018-06-04T04:43:19.045Z,18.44
2018-06-04T04:45:23.871Z,18.44
2018-06-04T04:47:28.589Z,18.23
2018-06-04T04:49:33.258Z,18.49
2018-06-04T04:51:38.003Z,18.52
2018-06-04T04:53:42.903Z,18.55
2018-06-04T04:55:47.775Z,18.60
2018-06-04T04:57:52.522Z,18.66
2018-06-04T04:59:57.282Z,18.71
2018-06-04T05:02:02.007Z,18.75
2018-06-04T05:04:06.885Z,18.81
2018-06-04T05:06:11.679Z,18.85
2018-06-04T05:08:16.366Z,18.94
2018-06-04T05:10:21.095Z,18.93
2018-06-04T05:12:25.972Z,19.04
2018-06-04T05:14:30.743Z,19.06
2018-06-04T05:16:35.538Z,19.06
2018-06-04T05:18:40.324Z,19.09
2018-06-04T05:20:45.026Z,19.11
2018-06-04T05:22:49.696Z,19.12
2018-06-04T05:24:54.499Z,19.06
2018-06-04T05:26:59.319Z,19.16
2018-06-04T05:29:04.122Z,18.90
2018-06-04T05:31:09.063Z,19.24
2018-06-04T05:33:13.863Z,19.31
2018-06-04T05:35:18.579Z,19.09
2018-06-04T05:37:23.556Z,19.35
2018-06-04T05:39:28.344Z,19.25
2018-06-04T05:41:33.207Z,19.42
2018-06-04T05:43:38.406Z,19.36
2018-06-04T05:45:43.150Z,19.35
2018-06-04T05:47:47.976Z,19.44
2018-06-04T05:49:52.858Z,19.44
2018-06-04T05:51:57.574Z,19.43
2018-06-04T05:54:02.287Z,19.49
2018-06-04T05:56:07.175Z,19.43
2018-06-04T05:58:11.894Z,19.49
2018-06-04T06:00:16.696Z,18.98
2018-06-04T06:02:21.485Z,19.61
2018-06-04T06:04:26.249Z,19.57
2018-06-04T06:06:30.998Z,19.57
2018-06-04T06:08:35.705Z,19.25
2018-06-04T06:10:40.467Z,19.64
2018-06-04T06:12:45.274Z,19.63
2018-06-04T06:14:50.062Z,19.57
2018-06-04T06:16:54.849Z,19.80
2018-06-04T06:18:59.698Z,19.82
2018-06-04T06:21:04.529Z,19.79
2018-06-04T06:23:09.317Z,19.81
2018-06-04T06:25:14.065Z,19.88
2018-06-04T06:27:18.771Z,19.89
2018-06-04T06:29:23.658Z,20.00
2018-06-04T06:31:28.438Z,19.92
2018-06-04T06:33:33.233Z,20.02
2018-06-04T06:35:38.016Z,19.99
2018-06-04T06:37:42.855Z,20.06
2018-06-04T06:39:47.657Z,20.03
2018-06-04T06:41:52.373Z,20.15
2018-06-04T06:43:57.135Z,20.24
2018-06-04T06:46:01.971Z,20.38
2018-06-04T06:48:06.788Z,20.19
2018-06-04T06:50:11.580Z,20.15
2018-06-04T06:52:16.456Z,20.20
2018-06-04T06:54:21.124Z,20.33
2018-06-04T06:56:25.880Z,20.31
2018-06-04T06:58:30.936Z,20.43
2018-06-04T07:00:36.140Z,20.32
2018-06-04T07:02:40.858Z,20.41
2018-06-04T07:04:45.957Z,20.47
2018-06-04T07:06:50.702Z,20.61
2018-06-04T07:08:55.399Z,20.74
2018-06-04T07:11:00.163Z,20.86
2018-06-04T07:13:05.011Z,20.83
2018-06-04T07:15:10.153Z,20.92
2018-06-04T07:17:15.308Z,20.97
2018-06-04T07:19:20.645Z,21.12
2018-06-04T07:21:26.356Z,21.05
2018-06-04T07:23:31.496Z,21.02
2018-06-04T07:25:36.716Z,21.19
2018-06-04T07:27:42.114Z,21.33
2018-06-04T07:29:47.235Z,21.33
2018-06-04T07:31:52.548Z,21.45
2018-06-04T07:33:57.572Z,21.51
2018-06-04T07:36:12.169Z,21.72
2018-06-04T07:38:17.306Z,21.63
2018-06-04T07:40:22.687Z,21.66
2018-06-04T07:42:27.639Z,21.84
2018-06-04T07:44:33.244Z,21.86
2018-06-04T07:46:38.053Z,21.93
2018-06-04T07:48:43.158Z,22.12
2018-06-04T07:50:56.502Z,22.11
2018-06-04T07:53:01.223Z,21.92
2018-06-04T07:55:06.241Z,21.87
2018-06-04T07:57:11.399Z,22.01
2018-06-04T07:59:16.570Z,22.15
2018-06-04T08:01:21.913Z,22.17
2018-06-04T08:03:26.675Z,22.15
2018-06-04T08:05:31.570Z,22.25
2018-06-04T08:07:36.545Z,22.40
2018-06-04T08:09:41.264Z,22.50
2018-06-04T08:11:46.078Z,22.38
2018-06-04T08:13:50.880Z,22.32
2018-06-04T08:15:55.879Z,22.43
2018-06-04T08:18:00.997Z,22.75
2018-06-04T08:20:06.580Z,22.81
2018-06-04T08:22:11.545Z,22.99
2018-06-04T08:24:16.836Z,22.92
2018-06-04T08:26:21.751Z,22.68
2018-06-04T08:28:26.805Z,22.96
2018-06-04T08:30:32.007Z,23.06
2018-06-04T08:32:36.990Z,23.11
2018-06-04T08:34:41.887Z,23.08
2018-06-04T08:36:46.670Z,23.27
2018-06-04T08:38:51.620Z,23.37
2018-06-04T08:40:56.502Z,23.43
2018-06-04T08:43:01.475Z,23.56
2018-06-04T08:45:06.841Z,23.17
2018-06-04T08:47:11.709Z,23.27
2018-06-04T08:49:16.548Z,23.52
2018-06-04T08:51:21.426Z,23.63
2018-06-04T08:53:26.419Z,23.78
2018-06-04T08:55:31.297Z,23.77
2018-06-04T08:57:36.286Z,23.91
2018-06-04T08:59:41.251Z,23.70
2018-06-04T09:01:47.404Z,23.56
2018-06-04T09:03:52.190Z,23.84
2018-06-04T09:08:11.070Z,23.72
2018-06-04T09:10:15.794Z,23.81
2018-06-04T09:12:20.459Z,23.88
2018-06-04T09:14:25.197Z,23.90
2018-06-04T09:16:29.877Z,24.08
2018-06-04T09:18:34.496Z,24.01
2018-06-04T09:20:39.251Z,24.14
2018-06-04T09:22:44.057Z,23.92
2018-06-04T09:24:48.954Z,24.18
2018-06-04T09:26:54.143Z,24.32
2018-06-04T09:28:59.074Z,24.36
2018-06-04T09:31:04.293Z,24.33
2018-06-04T09:33:12.199Z,24.57
2018-06-04T09:35:17.137Z,24.69
2018-06-04T09:37:22.004Z,24.36
2018-06-04T09:39:27.313Z,24.48
2018-06-04T09:41:32.199Z,24.58
2018-06-04T09:43:37.452Z,24.73
2018-06-04T09:45:42.175Z,24.79
2018-06-04T09:47:47.086Z,24.81
2018-06-04T09:49:51.933Z,24.81
2018-06-04T09:51:56.788Z,24.94
2018-06-04T09:54:01.799Z,25.10
2018-06-04T09:56:06.722Z,25.20
2018-06-04T09:58:11.486Z,25.33
2018-06-04T10:00:21.371Z,25.50
2018-06-04T10:02:26.555Z,25.60
2018-06-04T10:04:31.659Z,25.49
2018-06-04T10:06:36.683Z,25.29
2018-06-04T10:08:42.159Z,25.13
2018-06-04T10:10:47.129Z,25.53
2018-06-04T10:12:51.929Z,25.45
2018-06-04T10:14:57.194Z,25.53
2018-06-04T10:17:01.990Z,25.49
2018-06-04T10:19:07.652Z,25.54
2018-06-04T10:21:12.471Z,25.78
2018-06-04T10:23:17.251Z,26.04
2018-06-04T10:25:22.042Z,26.15
2018-06-04T10:27:26.813Z,26.19
2018-06-04T10:29:31.704Z,26.33
2018-06-04T10:31:36.480Z,26.40
2018-06-04T10:33:41.195Z,26.08
2018-06-04T10:35:45.992Z,26.18
2018-06-04T10:37:50.628Z,25.79
2018-06-04T10:39:55.289Z,26.14
2018-06-04T10:41:59.902Z,26.10
2018-06-04T10:44:05.045Z,26.42
2018-06-04T10:46:09.862Z,26.64
2018-06-04T10:48:14.539Z,26.88
2018-06-04T10:50:19.323Z,26.87
2018-06-04T10:52:24.222Z,27.08
2018-06-04T10:54:29.051Z,26.82
2018-06-04T10:56:33.757Z,26.77
2018-06-04T10:58:38.478Z,26.74
2018-06-04T11:00:43.119Z,27.03
2018-06-04T11:02:47.914Z,27.30
2018-06-04T11:04:52.597Z,26.48
2018-06-04T11:06:57.386Z,26.59
2018-06-04T11:09:02.038Z,26.51
2018-06-04T11:11:06.778Z,26.74
2018-06-04T11:13:11.525Z,26.35
2018-06-04T11:15:16.532Z,25.87
2018-06-04T11:17:21.494Z,26.21
2018-06-04T11:19:26.508Z,26.24
2018-06-04T11:21:31.313Z,26.06
2018-06-04T11:23:36.117Z,26.03
2018-06-04T11:25:40.963Z,25.59
2018-06-04T11:27:45.675Z,25.74
2018-06-04T11:29:50.376Z,25.75
2018-06-04T11:31:55.068Z,25.73
2018-06-04T11:33:59.740Z,25.69
2018-06-04T11:36:04.813Z,25.39
2018-06-04T11:38:13.001Z,25.36
2018-06-04T11:40:18.565Z,25.25
2018-06-04T11:42:23.342Z,25.50
2018-06-04T11:44:28.035Z,25.40
2018-06-04T11:46:32.793Z,25.47
2018-06-04T11:48:37.621Z,25.60
2018-06-04T11:50:42.685Z,25.83
2018-06-04T11:52:47.678Z,26.11
2018-06-04T11:54:56.091Z,25.82
2018-06-04T11:57:00.879Z,25.57
2018-06-04T11:59:06.294Z,25.75
2018-06-04T12:01:11.580Z,25.42
2018-06-04T12:03:16.493Z,25.60
2018-06-04T12:05:21.316Z,25.71
2018-06-04T12:07:26.041Z,25.88
2018-06-04T12:09:30.852Z,25.57
2018-06-04T12:11:35.932Z,25.41
2018-06-04T12:13:40.741Z,25.62
2018-06-04T12:15:45.614Z,25.74
2018-06-04T12:17:57.945Z,25.85
2018-06-04T12:20:02.619Z,26.05
2018-06-04T12:22:07.443Z,26.32
2018-06-04T12:24:12.161Z,26.69
2018-06-04T12:26:16.971Z,26.92
2018-06-04T12:28:21.812Z,26.78
2018-06-04T12:30:26.471Z,27.20
2018-06-04T12:32:31.211Z,27.23
2018-06-04T12:34:35.950Z,27.03
2018-06-04T12:36:41.179Z,26.78
2018-06-04T12:38:46.078Z,26.91
2018-06-04T12:40:50.920Z,27.02
2018-06-04T12:42:55.797Z,27.01
2018-06-04T12:45:00.522Z,26.90
2018-06-04T12:47:05.369Z,26.38
2018-06-04T12:49:10.145Z,26.60
2018-06-04T12:51:14.951Z,26.71
2018-06-04T12:53:19.583Z,26.68
2018-06-04T12:55:24.354Z,26.54
2018-06-04T12:59:45.464Z,25.99
2018-06-04T13:01:50.291Z,25.74
2018-06-04T13:03:55.286Z,25.58
2018-06-04T13:05:59.965Z,25.89
2018-06-04T13:08:04.665Z,25.76
2018-06-04T13:10:09.370Z,25.77
2018-06-04T13:12:14.130Z,25.94
2018-06-04T13:14:18.875Z,26.33
2018-06-04T13:16:23.707Z,26.23
2018-06-04T13:18:28.480Z,26.48
2018-06-04T13:20:33.456Z,26.39
2018-06-04T13:22:38.402Z,26.18
2018-06-04T13:24:43.174Z,26.43
2018-06-04T13:26:47.999Z,26.52
2018-06-04T13:28:52.869Z,26.59
2018-06-04T13:30:57.739Z,26.74
2018-06-04T13:33:02.635Z,27.28
2018-06-04T13:35:09.301Z,27.05
2018-06-04T13:37:14.265Z,26.88
2018-06-04T13:39:19.238Z,26.55
2018-06-04T13:41:24.190Z,26.70
2018-06-04T13:43:29.112Z,26.91
2018-06-04T13:45:34.019Z,26.46
2018-06-04T13:47:38.844Z,26.11
2018-06-04T13:49:43.666Z,25.99
2018-06-04T13:51:48.653Z,26.18
2018-06-04T13:53:53.497Z,26.20
2018-06-04T13:55:57.920Z,26.29
2018-06-04T13:58:02.886Z,26.48
2018-06-04T14:00:07.932Z,26.63
2018-06-04T14:02:12.723Z,26.30
2018-06-04T14:04:17.768Z,26.01
2018-06-04T14:06:22.521Z,25.96
2018-06-04T14:08:27.513Z,25.90
2018-06-04T14:10:32.299Z,25.88
2018-06-04T14:12:37.239Z,25.85
2018-06-04T14:14:42.135Z,25.84
2018-06-04T14:16:46.953Z,25.75
2018-06-04T14:18:51.808Z,26.02
2018-06-04T14:20:56.679Z,25.89
2018-06-04T14:23:01.554Z,26.00
2018-06-04T14:25:06.470Z,25.98
2018-06-04T14:27:11.405Z,26.00
2018-06-04T14:29:17.893Z,26.36
2018-06-04T14:31:22.870Z,26.28
2018-06-04T14:33:27.658Z,26.20
2018-06-04T14:35:33.256Z,26.38
2018-06-04T14:37:38.205Z,26.36
2018-06-04T14:39:44.876Z,26.62
2018-06-04T14:41:49.941Z,27.19
2018-06-04T14:43:54.893Z,27.17
2018-06-04T14:45:59.787Z,27.17
2018-06-04T14:48:04.780Z,26.94
2018-06-04T14:50:09.657Z,26.88
2018-06-04T14:52:14.575Z,27.31
2018-06-04T14:54:19.611Z,27.50
2018-06-04T14:56:24.520Z,27.69
2018-06-04T14:58:30.204Z,27.38
2018-06-04T15:00:35.230Z,27.22
2018-06-04T15:02:40.204Z,27.25
2018-06-04T15:04:45.177Z,27.05
2018-06-04T15:06:50.059Z,26.87
2018-06-04T15:08:54.946Z,26.85
2018-06-04T15:10:59.723Z,26.92
2018-06-04T15:13:04.771Z,26.50
2018-06-04T15:15:09.585Z,26.58
2018-06-04T15:17:14.443Z,26.21
2018-06-04T15:19:19.263Z,25.96
2018-06-04T15:21:24.046Z,25.96
2018-06-04T15:23:28.927Z,25.72
2018-06-04T15:25:33.895Z,25.57
2018-06-04T15:27:38.672Z,25.55
2018-06-04T15:29:43.536Z,25.59
2018-06-04T15:31:48.385Z,25.19
2018-06-04T15:33:53.277Z,25.24
2018-06-04T15:35:58.148Z,25.10
2018-06-04T15:38:03.070Z,25.28
2018-06-04T15:40:07.879Z,25.38
2018-06-04T15:42:12.831Z,25.59
2018-06-04T15:44:17.738Z,26.02
2018-06-04T15:46:22.652Z,25.88
2018-06-04T15:48:27.583Z,25.96
2018-06-04T15:50:32.395Z,25.82
2018-06-04T15:54:38.579Z,25.31
2018-06-04T15:56:44.870Z,25.86
2018-06-04T15:58:50.172Z,25.88
2018-06-04T16:00:56.239Z,26.18
2018-06-04T16:03:01.287Z,26.13
2018-06-04T16:05:06.756Z,26.39
2018-06-04T16:07:11.603Z,26.39
2018-06-04T16:09:16.535Z,26.54
2018-06-04T16:11:21.253Z,26.57
2018-06-04T16:13:26.184Z,26.85
2018-06-04T16:15:31.143Z,26.87
2018-06-04T16:17:35.972Z,27.05
2018-06-04T16:19:40.849Z,27.10
2018-06-04T16:21:45.838Z,27.00
2018-06-04T16:23:50.874Z,27.31
2018-06-04T16:25:55.908Z,27.05
2018-06-04T16:28:00.800Z,27.17
2018-06-04T16:30:07.559Z,27.49
2018-06-04T16:32:12.316Z,27.20
2018-06-04T16:34:17.030Z,26.90
2018-06-04T16:36:21.694Z,27.27
2018-06-04T16:38:26.404Z,27.32
2018-06-04T16:40:31.094Z,27.36
2018-06-04T16:42:35.841Z,27.40
2018-06-04T16:44:40.619Z,27.12
2018-06-04T16:46:45.378Z,27.60
2018-06-04T16:48:50.077Z,27.81
2018-06-04T16:50:54.769Z,27.92
2018-06-04T16:52:59.662Z,27.71
2018-06-04T16:55:04.563Z,28.19
2018-06-04T16:57:09.247Z,27.50
2018-06-04T16:59:14.448Z,27.56
2018-06-04T17:01:19.238Z,27.26
2018-06-04T17:03:24.135Z,27.05
2018-06-04T17:05:29.050Z,27.07
2018-06-04T17:07:33.869Z,27.66
2018-06-04T17:09:38.764Z,26.90
2018-06-04T17:11:43.618Z,27.34
2018-06-04T17:13:48.352Z,27.62
2018-06-04T17:15:53.467Z,27.96
2018-06-04T17:17:59.218Z,27.81
2018-06-04T17:20:04.116Z,27.46
2018-06-04T17:22:09.160Z,27.46
2018-06-04T17:24:14.054Z,27.70
2018-06-04T17:26:18.833Z,27.40
2018-06-04T17:28:23.508Z,27.35
2018-06-04T17:30:28.373Z,27.01
2018-06-04T17:32:33.154Z,26.82
2018-06-04T17:34:37.849Z,27.14
2018-06-04T17:36:42.677Z,27.09
2018-06-04T17:38:47.562Z,26.47
2018-06-04T17:40:52.372Z,26.65
2018-06-04T17:42:57.142Z,26.70
2018-06-04T17:45:02.267Z,26.61
2018-06-04T17:47:06.995Z,26.58
2018-06-04T17:49:11.797Z,26.71
2018-06-04T17:51:17.097Z,26.53
2018-06-04T17:53:22.036Z,26.31
2018-06-04T17:55:27.712Z,26.28
2018-06-04T17:57:32.685Z,26.44
2018-06-04T17:59:37.498Z,26.45
2018-06-04T18:01:43.140Z,26.61
2018-06-04T18:03:48.716Z,26.10
2018-06-04T18:05:54.805Z,26.01
2018-06-04T18:07:59.745Z,25.64
2018-06-04T18:10:04.891Z,26.52
2018-06-04T18:12:09.891Z,26.38
2018-06-04T18:14:15.144Z,26.47
2018-06-04T18:16:19.925Z,25.83
2018-06-04T18:18:24.840Z,26.01
2018-06-04T18:20:29.681Z,25.63
2018-06-04T18:22:34.352Z,25.66
2018-06-04T18:24:39.413Z,24.35
2018-06-04T18:26:44.187Z,25.29
2018-06-04T18:28:50.326Z,25.12
2018-06-04T18:30:56.415Z,24.99
2018-06-04T18:33:01.933Z,24.41
2018-06-04T18:35:06.401Z,24.71
2018-06-04T18:37:11.628Z,24.19
2018-06-04T18:39:17.154Z,24.05
2018-06-04T18:41:22.638Z,24.10
2018-06-04T18:43:51.990Z,24.32
2018-06-04T18:46:06.682Z,24.02
2018-06-04T18:48:36.114Z,24.01
2018-06-04T18:51:09.628Z,23.93
2018-06-04T18:53:45.788Z,23.33
2018-06-04T18:56:09.861Z,24.01
2018-06-04T18:58:22.115Z,23.87
2018-06-04T19:00:27.172Z,22.29
2018-06-04T19:02:41.140Z,23.57
2018-06-04T19:05:16.575Z,23.41
2018-06-04T19:07:49.621Z,23.10
2018-06-04T19:10:11.475Z,23.23
2018-06-04T19:12:48.910Z,23.34
2018-06-04T19:15:00.479Z,23.22
2018-06-04T19:17:30.596Z,23.07
2018-06-04T19:20:10.960Z,22.98
2018-06-04T19:22:51.067Z,22.95
2018-06-04T19:24:57.108Z,22.89
2018-06-04T19:27:32.912Z,22.84
2018-06-04T19:30:14.414Z,22.67
2018-06-04T19:32:42.254Z,22.65
2018-06-04T19:34:51.165Z,22.58
2018-06-04T19:37:19.002Z,22.71
2018-06-04T19:39:53.418Z,22.63
2018-06-04T19:42:13.184Z,22.51
2018-06-04T19:44:23.620Z,22.39
2018-06-04T19:49:13.219Z,21.84
2018-06-04T19:51:29.029Z,22.15
2018-06-04T19:54:01.375Z,22.07
2018-06-04T19:56:23.994Z,22.03
2018-06-04T19:58:32.185Z,21.88
2018-06-04T20:00:44.349Z,21.93
2018-06-04T20:02:54.171Z,21.90
2018-06-04T20:07:05.510Z,21.79
2018-06-04T20:09:17.989Z,21.40
2018-06-04T20:11:29.680Z,21.69
2018-06-04T20:14:18.708Z,21.59
2018-06-04T20:16:30.478Z,21.45
2018-06-04T20:18:42.068Z,21.46
2018-06-04T20:20:47.102Z,21.37
2018-06-04T20:23:05.001Z,21.41
2018-06-04T20:25:15.545Z,21.33
2018-06-04T20:27:21.116Z,21.42
2018-06-04T20:29:26.203Z,21.37
2018-06-04T20:31:31.079Z,21.03
2018-06-04T20:33:36.099Z,21.27
2018-06-04T20:35:42.111Z,21.10
2018-06-04T20:37:47.191Z,21.38
2018-06-04T20:39:52.273Z,21.11
2018-06-04T20:41:57.120Z,21.01
2018-06-04T20:44:01.925Z,20.91
2018-06-04T20:46:07.084Z,21.11
2018-06-04T20:48:12.230Z,20.87
2018-06-04T20:50:17.032Z,20.84
2018-06-04T20:52:22.041Z,20.81
2018-06-04T20:54:27.042Z,20.74
2018-06-04T20:56:32.120Z,20.68
2018-06-04T20:58:37.808Z,20.53
2018-06-04T21:00:44.687Z,20.37
2018-06-04T21:02:50.301Z,20.46
2018-06-04T21:04:55.400Z,20.15
2018-06-04T21:07:00.230Z,20.55
2018-06-04T21:09:07.812Z,20.40
2018-06-04T21:11:12.714Z,20.41
2018-06-04T21:13:18.133Z,20.41
2018-06-04T21:15:22.946Z,20.37
2018-06-04T21:17:27.853Z,20.29
2018-06-04T21:19:32.875Z,20.18
2018-06-04T21:21:40.134Z,20.05
2018-06-04T21:23:44.888Z,19.98
2018-06-04T21:25:49.684Z,20.00
2018-06-04T21:27:54.523Z,19.90
2018-06-04T21:29:59.342Z,19.86
2018-06-04T21:32:04.206Z,19.89
2018-06-04T21:34:08.996Z,19.84
2018-06-04T21:36:13.825Z,19.85
2018-06-04T21:38:18.628Z,19.77
2018-06-04T21:40:23.376Z,19.70
2018-06-04T21:42:28.192Z,19.70
2018-06-04T21:44:33.047Z,19.54
2018-06-04T21:46:37.820Z,19.55
2018-06-04T21:48:47.955Z,19.35
2018-06-04T21:50:56.455Z,19.60
2018-06-04T21:53:01.237Z,19.51
2018-06-04T21:55:06.149Z,19.57
2018-06-04T21:57:11.250Z,19.53
2018-06-04T21:59:15.996Z,19.50
2018-06-04T22:01:20.762Z,19.46
2018-06-04T22:03:25.821Z,19.26
2018-06-04T22:05:30.868Z,19.06
2018-06-04T22:07:35.912Z,19.59
2018-06-04T22:09:40.758Z,19.47
2018-06-04T22:11:45.746Z,19.32
2018-06-04T22:13:50.846Z,19.37
2018-06-04T22:15:55.633Z,19.26
2018-06-04T22:18:00.401Z,19.15
2018-06-04T22:20:05.278Z,19.07
2018-06-04T22:22:10.013Z,18.97
2018-06-04T22:24:14.742Z,18.92
2018-06-04T22:26:19.568Z,18.96
2018-06-04T22:28:24.348Z,18.88
2018-06-04T22:30:29.425Z,18.86
2018-06-04T22:32:34.365Z,18.93
2018-06-04T22:34:39.202Z,18.72
2018-06-04T22:36:43.915Z,18.54
2018-06-04T22:38:48.721Z,18.68
2018-06-04T22:40:53.440Z,18.59
2018-06-04T22:42:58.191Z,18.49
2018-06-04T22:45:02.997Z,18.46
2018-06-04T22:47:07.787Z,18.37
2018-06-04T22:49:12.467Z,18.44
2018-06-04T22:51:17.166Z,18.24
2018-06-04T22:53:21.858Z,18.29
2018-06-04T22:55:26.613Z,18.25
2018-06-04T22:57:31.483Z,18.07
2018-06-04T22:59:36.123Z,18.22
2018-06-04T23:01:40.947Z,18.40
2018-06-04T23:03:45.746Z,18.33
2018-06-04T23:05:50.519Z,18.20
2018-06-04T23:07:55.262Z,18.25
2018-06-04T23:10:00.030Z,18.22
2018-06-04T23:12:04.794Z,18.09
2018-06-04T23:14:09.507Z,18.16
2018-06-04T23:16:14.369Z,18.05
2018-06-04T23:18:19.117Z,18.04
2018-06-04T23:20:23.932Z,18.12
2018-06-04T23:22:28.739Z,18.09
2018-06-04T23:24:33.517Z,18.09
2018-06-04T23:26:38.193Z,17.89
2018-06-04T23:28:42.869Z,17.79
2018-06-04T23:30:47.569Z,17.83
2018-06-04T23:32:52.210Z,17.75
2018-06-04T23:34:56.922Z,17.86
2018-06-04T23:37:01.684Z,17.70
2018-06-04T23:39:09.322Z,17.72
2018-06-04T23:41:14.039Z,17.62
2018-06-04T23:43:18.791Z,17.59
2018-06-04T23:45:23.428Z,17.59
2018-06-04T23:47:28.266Z,17.50
2018-06-04T23:49:33.030Z,17.51
2018-06-04T23:51:37.746Z,17.37
2018-06-04T23:53:42.486Z,17.39
2018-06-04T23:55:47.171Z,17.45
2018-06-04T23:57:51.896Z,17.42
2018-06-04T23:59:56.681Z,17.51
